createdAt,value
2023-01-26T00:00:29.251Z,-0.72
2023-01-26T00:03:01.295Z,-0.70
2023-01-26T00:05:33.476Z,-0.64
2023-01-26T00:08:05.983Z,-0.54
2023-01-26T00:10:44.281Z,-0.52
2023-01-26T00:13:16.393Z,-0.57
2023-01-26T00:15:48.945Z,-0.49
2023-01-26T00:18:21.025Z,-0.52
2023-01-26T00:21:01.402Z,-0.48
2023-01-26T00:23:35.743Z,-0.47
2023-01-26T00:26:09.016Z,-0.50
2023-01-26T00:28:41.210Z,-0.46
2023-01-26T00:31:16.349Z,-0.34
2023-01-26T00:33:48.911Z,-0.48
2023-01-26T00:36:21.416Z,-0.49
2023-01-26T00:38:53.672Z,-0.52
2023-01-26T00:41:43.441Z,-0.52
2023-01-26T00:44:15.606Z,-0.52
2023-01-26T00:46:47.764Z,-0.51
2023-01-26T00:49:19.753Z,-0.50
2023-01-26T00:51:51.750Z,-0.47
2023-01-26T00:54:23.939Z,-0.36
2023-01-26T00:56:56.838Z,-0.40
2023-01-26T00:59:29.925Z,-0.40
2023-01-26T01:02:02.919Z,-0.44
2023-01-26T01:04:35.097Z,-0.46
2023-01-26T01:07:07.604Z,-0.43
2023-01-26T01:09:40.716Z,-0.40
2023-01-26T01:12:12.914Z,-0.44
2023-01-26T01:14:45.496Z,-0.43
2023-01-26T01:17:18.688Z,-0.41
2023-01-26T01:19:50.895Z,-0.41
2023-01-26T01:22:24.506Z,-0.36
2023-01-26T01:24:57.112Z,-0.33
2023-01-26T01:27:29.179Z,-0.37
2023-01-26T01:30:01.254Z,-0.39
2023-01-26T01:32:34.876Z,-0.35
2023-01-26T01:35:07.406Z,-0.39
2023-01-26T01:37:39.844Z,-0.34
2023-01-26T01:40:15.236Z,-0.31
2023-01-26T01:42:50.722Z,-0.32
2023-01-26T01:45:31.787Z,-0.30
2023-01-26T01:48:06.551Z,-0.34
2023-01-26T01:50:40.859Z,-0.38
2023-01-26T01:53:15.768Z,-0.40
2023-01-26T01:55:48.448Z,-0.41
2023-01-26T01:58:21.438Z,-0.41
2023-01-26T02:00:53.506Z,-0.38
2023-01-26T02:03:26.693Z,-0.34
2023-01-26T02:06:13.692Z,-0.28
2023-01-26T02:08:48.563Z,-0.28
2023-01-26T02:11:32.532Z,-0.30
2023-01-26T02:14:08.925Z,-0.31
2023-01-26T02:16:41.080Z,-0.29
2023-01-26T02:19:19.137Z,-0.28
2023-01-26T02:21:53.309Z,-0.26
2023-01-26T02:24:26.234Z,-0.22
2023-01-26T02:26:59.053Z,-0.10
2023-01-26T02:29:31.576Z,-0.23
2023-01-26T02:32:03.732Z,-0.24
2023-01-26T02:34:36.742Z,-0.22
2023-01-26T02:37:12.075Z,-0.22
2023-01-26T02:39:48.645Z,-0.17
2023-01-26T02:42:38.486Z,-0.19
2023-01-26T02:45:13.948Z,-0.18
2023-01-26T02:47:46.481Z,-0.17
2023-01-26T02:50:18.878Z,-0.19
2023-01-26T02:52:50.805Z,-0.21
2023-01-26T02:55:26.641Z,-0.20
2023-01-26T02:58:01.686Z,-0.15
2023-01-26T03:00:38.475Z,-0.13
2023-01-26T03:03:22.757Z,-0.12
2023-01-26T03:05:54.928Z,-0.16
2023-01-26T03:08:27.044Z,-0.15
2023-01-26T03:10:59.110Z,-0.17
2023-01-26T03:13:31.125Z,-0.17
2023-01-26T03:16:07.333Z,-0.16
2023-01-26T03:18:57.731Z,-0.14
2023-01-26T03:21:47.802Z,-0.10
2023-01-26T03:24:38.070Z,-0.13
2023-01-26T03:27:30.109Z,-0.15
2023-01-26T03:30:04.242Z,-0.13
2023-01-26T03:32:36.486Z,-0.14
2023-01-26T03:35:11.725Z,-0.13
2023-01-26T03:37:45.377Z,-0.12
2023-01-26T03:40:37.152Z,-0.12
2023-01-26T03:43:30.792Z,-0.11
2023-01-26T03:46:22.723Z,-0.04
2023-01-26T03:49:12.782Z,-0.09
2023-01-26T03:52:02.868Z,-0.08
2023-01-26T03:54:53.383Z,-0.05
2023-01-26T03:57:26.360Z,-0.05
2023-01-26T03:59:58.279Z,0.03
2023-01-26T04:02:48.394Z,-0.03
2023-01-26T04:05:38.682Z,-0.02
2023-01-26T04:08:27.530Z,0.00
2023-01-26T04:11:01.323Z,-0.03
2023-01-26T04:13:51.810Z,-0.03
2023-01-26T04:16:46.900Z,-0.02
2023-01-26T04:19:37.439Z,0.00
2023-01-26T04:22:09.821Z,-0.03
2023-01-26T04:24:42.349Z,-0.02
2023-01-26T04:27:14.995Z,0.00
2023-01-26T04:29:48.175Z,0.03
2023-01-26T04:32:20.727Z,0.03
2023-01-26T04:34:53.180Z,0.04
2023-01-26T04:37:27.740Z,0.17
2023-01-26T04:40:01.448Z,0.07
2023-01-26T04:42:34.763Z,0.03
2023-01-26T04:45:09.359Z,0.03
2023-01-26T04:47:41.980Z,0.03
2023-01-26T04:50:14.596Z,0.05
2023-01-26T04:52:47.322Z,0.08
2023-01-26T04:55:20.778Z,0.07
2023-01-26T04:57:53.097Z,0.08
2023-01-26T05:00:26.080Z,0.09
2023-01-26T05:03:00.945Z,0.07
2023-01-26T05:05:34.403Z,0.08
2023-01-26T05:08:07.755Z,0.21
2023-01-26T05:10:40.110Z,0.08
2023-01-26T05:13:22.948Z,0.08
2023-01-26T05:16:09.422Z,0.03
2023-01-26T05:18:47.900Z,0.07
2023-01-26T05:21:27.739Z,0.04
2023-01-26T05:24:00.951Z,0.07
2023-01-26T05:26:35.430Z,0.06
2023-01-26T05:29:09.318Z,0.08
2023-01-26T05:31:42.213Z,0.07
2023-01-26T05:34:15.134Z,0.07
2023-01-26T05:36:47.533Z,0.02
2023-01-26T05:39:20.276Z,0.00
2023-01-26T05:41:53.039Z,0.00
2023-01-26T05:44:27.161Z,-0.02
2023-01-26T05:47:00.167Z,0.00
2023-01-26T05:49:33.380Z,0.16
2023-01-26T05:52:09.855Z,0.09
2023-01-26T05:54:44.084Z,0.11
2023-01-26T05:57:17.847Z,0.17
2023-01-26T05:59:51.984Z,0.22
2023-01-26T06:02:24.269Z,0.18
2023-01-26T06:04:56.943Z,0.18
2023-01-26T06:07:29.201Z,0.19
2023-01-26T06:10:15.343Z,0.20
2023-01-26T06:12:48.197Z,0.21
2023-01-26T06:15:21.708Z,0.37
2023-01-26T06:17:56.001Z,0.25
2023-01-26T06:20:28.538Z,0.26
2023-01-26T06:23:02.665Z,0.23
2023-01-26T06:25:36.464Z,0.28
2023-01-26T06:28:09.454Z,0.27
2023-01-26T06:30:41.991Z,0.32
2023-01-26T06:33:15.901Z,0.32
2023-01-26T06:35:48.376Z,0.33
2023-01-26T06:38:22.276Z,0.38
2023-01-26T06:40:54.891Z,0.41
2023-01-26T06:43:28.312Z,0.42
2023-01-26T06:46:03.037Z,0.41
2023-01-26T06:48:37.082Z,0.44
2023-01-26T06:51:21.339Z,0.50
2023-01-26T06:53:59.950Z,0.45
2023-01-26T06:56:43.967Z,0.47
2023-01-26T06:59:37.443Z,0.49
2023-01-26T07:02:26.047Z,0.51
2023-01-26T07:04:58.758Z,0.52
2023-01-26T07:07:32.653Z,0.52
2023-01-26T07:10:07.933Z,0.57
2023-01-26T07:12:41.840Z,0.58
2023-01-26T07:15:15.144Z,0.63
2023-01-26T07:17:47.348Z,0.65
2023-01-26T07:20:20.071Z,0.70
2023-01-26T07:22:53.415Z,0.78
2023-01-26T07:25:27.054Z,0.86
2023-01-26T07:28:02.676Z,0.84
2023-01-26T07:30:35.276Z,0.85
2023-01-26T07:33:10.978Z,0.85
2023-01-26T07:35:43.273Z,0.89
2023-01-26T07:38:15.910Z,0.85
2023-01-26T07:40:48.036Z,0.91
2023-01-26T07:43:20.679Z,0.98
2023-01-26T07:45:55.725Z,1.02
2023-01-26T07:48:30.543Z,1.08
2023-01-26T07:51:04.714Z,1.09
2023-01-26T07:53:38.482Z,1.16
2023-01-26T07:56:14.112Z,1.17
2023-01-26T07:58:52.929Z,1.13
2023-01-26T08:01:25.962Z,1.12
2023-01-26T08:03:58.735Z,1.13
2023-01-26T08:06:33.094Z,1.18
2023-01-26T08:09:05.727Z,1.22
2023-01-26T08:11:38.976Z,1.25
2023-01-26T08:14:12.047Z,1.26
2023-01-26T08:16:45.677Z,1.28
2023-01-26T08:19:18.205Z,1.31
2023-01-26T08:21:52.028Z,1.34
2023-01-26T08:24:24.618Z,1.41
2023-01-26T08:26:57.822Z,1.45
2023-01-26T08:29:30.932Z,1.43
2023-01-26T08:32:03.342Z,1.43
2023-01-26T08:34:35.747Z,1.42
2023-01-26T08:37:08.024Z,1.43
2023-01-26T08:39:40.460Z,1.43
2023-01-26T08:42:13.429Z,1.45
2023-01-26T08:44:45.563Z,1.46
2023-01-26T08:47:17.957Z,1.48
2023-01-26T08:49:50.093Z,1.51
2023-01-26T08:52:22.364Z,1.58
2023-01-26T08:54:54.842Z,1.57
2023-01-26T08:57:27.284Z,1.57
2023-01-26T08:59:59.662Z,1.61
2023-01-26T09:02:33.676Z,1.63
2023-01-26T09:05:06.609Z,1.72
2023-01-26T09:07:39.864Z,1.66
2023-01-26T09:10:13.277Z,1.66
2023-01-26T09:12:45.658Z,1.68
2023-01-26T09:15:18.701Z,1.69
2023-01-26T09:17:51.960Z,1.69
2023-01-26T09:20:25.062Z,1.74
2023-01-26T09:22:57.999Z,1.75
2023-01-26T09:25:30.265Z,1.73
2023-01-26T09:28:05.665Z,1.69
2023-01-26T09:30:39.265Z,1.68
2023-01-26T09:33:11.769Z,1.67
2023-01-26T09:35:44.320Z,1.70
2023-01-26T09:38:16.887Z,1.69
2023-01-26T09:40:58.298Z,1.66
2023-01-26T09:43:48.286Z,1.67
2023-01-26T09:46:29.181Z,1.71
2023-01-26T09:49:12.816Z,1.76
2023-01-26T09:51:47.794Z,1.79
2023-01-26T09:54:26.496Z,1.83
2023-01-26T09:57:00.720Z,1.79
2023-01-26T09:59:35.374Z,1.76
2023-01-26T10:02:29.535Z,1.92
2023-01-26T10:05:04.577Z,1.82
2023-01-26T10:07:36.645Z,1.83
2023-01-26T10:10:10.780Z,1.78
2023-01-26T10:12:43.984Z,1.80
2023-01-26T10:15:39.270Z,1.82
2023-01-26T10:18:26.358Z,1.80
2023-01-26T10:21:00.859Z,1.79
2023-01-26T10:23:35.170Z,1.83
2023-01-26T10:26:22.671Z,1.88
2023-01-26T10:28:54.979Z,1.88
2023-01-26T10:31:30.437Z,1.85
2023-01-26T10:34:11.542Z,1.92
2023-01-26T10:36:46.143Z,1.84
2023-01-26T10:39:19.491Z,1.78
2023-01-26T10:42:03.561Z,1.73
2023-01-26T10:44:38.680Z,1.78
2023-01-26T10:47:18.554Z,1.73
2023-01-26T10:49:50.867Z,1.65
2023-01-26T10:52:28.403Z,1.62
2023-01-26T10:55:12.972Z,1.59
2023-01-26T10:57:45.433Z,1.60
2023-01-26T11:00:29.685Z,1.63
2023-01-26T11:03:08.966Z,1.60
2023-01-26T11:05:41.290Z,1.63
2023-01-26T11:08:36.123Z,1.72
2023-01-26T11:11:11.843Z,1.66
2023-01-26T11:13:44.191Z,1.68
2023-01-26T11:16:25.578Z,1.70
2023-01-26T11:19:00.657Z,1.72
2023-01-26T11:21:47.699Z,1.73
2023-01-26T11:24:31.498Z,1.70
2023-01-26T11:27:39.379Z,1.67
2023-01-26T11:30:37.987Z,1.71
2023-01-26T11:33:21.954Z,1.61
2023-01-26T11:36:16.225Z,1.51
2023-01-26T11:39:05.980Z,1.44
2023-01-26T11:41:47.123Z,1.42
2023-01-26T11:44:38.114Z,1.37
2023-01-26T11:47:16.066Z,1.32
2023-01-26T11:50:00.319Z,1.31
2023-01-26T11:52:54.405Z,1.29
2023-01-26T11:55:50.036Z,1.27
2023-01-26T11:58:27.839Z,1.20
2023-01-26T12:01:02.917Z,1.17
2023-01-26T12:03:43.578Z,1.14
2023-01-26T12:06:33.626Z,1.10
2023-01-26T12:09:23.431Z,1.08
2023-01-26T12:11:58.457Z,1.03
2023-01-26T12:14:33.628Z,1.01
2023-01-26T12:17:40.344Z,1.01
2023-01-26T12:20:27.683Z,0.98
2023-01-26T12:23:11.645Z,0.98
2023-01-26T12:25:49.497Z,0.98
2023-01-26T12:28:36.020Z,0.97
2023-01-26T12:31:19.635Z,0.97
2023-01-26T12:33:54.892Z,1.00
2023-01-26T12:36:39.025Z,1.06
2023-01-26T12:39:14.553Z,1.02
2023-01-26T12:41:58.625Z,1.06
2023-01-26T12:44:45.644Z,1.07
2023-01-26T12:47:32.616Z,1.09
2023-01-26T12:50:25.306Z,1.09
2023-01-26T12:53:12.014Z,1.12
2023-01-26T12:55:47.294Z,1.14
2023-01-26T12:58:30.986Z,1.16
2023-01-26T13:01:09.047Z,1.20
2023-01-26T13:04:02.167Z,1.16
2023-01-26T13:06:35.125Z,1.16
2023-01-26T13:09:23.758Z,1.15
2023-01-26T13:12:02.274Z,1.14
2023-01-26T13:14:46.280Z,1.16
2023-01-26T13:17:22.418Z,1.19
2023-01-26T13:20:00.376Z,1.18
2023-01-26T13:22:41.640Z,1.14
2023-01-26T13:25:33.837Z,1.19
2023-01-26T13:28:09.225Z,1.15
2023-01-26T13:30:46.495Z,1.15
2023-01-26T13:33:24.681Z,1.16
2023-01-26T13:35:58.266Z,1.15
2023-01-26T13:38:42.974Z,1.14
2023-01-26T13:41:23.111Z,1.15
2023-01-26T13:44:00.804Z,1.13
2023-01-26T13:46:42.282Z,1.14
2023-01-26T13:49:26.728Z,1.17
2023-01-26T13:51:58.726Z,1.16
2023-01-26T13:54:31.123Z,1.20
2023-01-26T13:57:08.565Z,1.23
2023-01-26T13:59:52.529Z,1.24
2023-01-26T14:02:34.195Z,1.26
2023-01-26T14:05:06.926Z,1.25
2023-01-26T14:07:45.926Z,1.25
2023-01-26T14:10:22.228Z,1.26
2023-01-26T14:12:57.687Z,1.32
2023-01-26T14:15:32.883Z,1.32
2023-01-26T14:18:06.595Z,1.34
2023-01-26T14:20:40.936Z,1.36
2023-01-26T14:23:21.865Z,1.35
2023-01-26T14:26:03.389Z,1.39
2023-01-26T14:28:39.129Z,1.43
2023-01-26T14:31:25.815Z,1.39
2023-01-26T14:34:00.588Z,1.36
2023-01-26T14:36:35.653Z,1.34
2023-01-26T14:39:22.207Z,1.34
2023-01-26T14:41:54.692Z,1.37
2023-01-26T14:44:27.254Z,1.37
2023-01-26T14:47:05.090Z,1.32
2023-01-26T14:49:55.681Z,1.27
2023-01-26T14:52:30.548Z,1.25
2023-01-26T14:55:20.648Z,1.27
2023-01-26T14:57:54.134Z,1.20
2023-01-26T15:00:37.610Z,1.17
2023-01-26T15:03:15.566Z,1.17
2023-01-26T15:05:47.768Z,1.15
2023-01-26T15:08:23.961Z,1.15
2023-01-26T15:11:21.097Z,1.12
2023-01-26T15:13:57.248Z,1.17
2023-01-26T15:16:29.342Z,1.18
2023-01-26T15:19:08.130Z,1.15
2023-01-26T15:21:44.324Z,1.14
2023-01-26T15:24:17.617Z,1.16
2023-01-26T15:26:51.575Z,1.23
2023-01-26T15:29:32.798Z,1.25
2023-01-26T15:32:05.759Z,1.29
2023-01-26T15:34:42.543Z,1.26
2023-01-26T15:37:32.916Z,1.20
2023-01-26T15:40:05.694Z,1.16
2023-01-26T15:42:38.267Z,1.16
2023-01-26T15:45:25.770Z,1.17
2023-01-26T15:47:58.132Z,1.07
2023-01-26T15:50:30.411Z,1.03
2023-01-26T15:53:02.740Z,1.03
2023-01-26T15:55:35.719Z,0.92
2023-01-26T15:58:08.892Z,0.87
2023-01-26T16:00:41.232Z,0.86
2023-01-26T16:03:16.091Z,0.80
2023-01-26T16:05:49.242Z,0.80
2023-01-26T16:08:22.199Z,0.78
2023-01-26T16:10:57.282Z,0.76
2023-01-26T16:13:29.852Z,0.70
2023-01-26T16:16:04.402Z,0.71
2023-01-26T16:18:37.082Z,0.68
2023-01-26T16:21:20.904Z,0.66
2023-01-26T16:23:53.007Z,0.66
2023-01-26T16:26:27.362Z,0.65
2023-01-26T16:29:00.181Z,0.66
2023-01-26T16:31:36.902Z,0.68
2023-01-26T16:34:11.049Z,0.75
2023-01-26T16:36:43.584Z,0.83
2023-01-26T16:39:15.724Z,0.82
2023-01-26T16:41:48.407Z,0.86
2023-01-26T16:44:22.093Z,0.86
2023-01-26T16:46:54.699Z,0.88
2023-01-26T16:49:27.175Z,0.91
2023-01-26T16:51:59.498Z,0.91
2023-01-26T16:54:31.600Z,0.93
2023-01-26T16:57:03.597Z,0.97
2023-01-26T16:59:35.814Z,1.05
2023-01-26T17:02:13.349Z,1.00
2023-01-26T17:04:46.127Z,0.97
2023-01-26T17:07:18.618Z,0.96
2023-01-26T17:09:51.155Z,0.96
2023-01-26T17:12:23.233Z,0.95
2023-01-26T17:14:55.420Z,0.93
2023-01-26T17:17:27.506Z,0.95
2023-01-26T17:20:17.613Z,0.93
2023-01-26T17:22:35.366Z,0.89
2023-01-26T17:25:08.317Z,0.89
2023-01-26T17:27:40.903Z,0.88
2023-01-26T17:30:27.614Z,0.89
2023-01-26T17:33:00.053Z,0.86
2023-01-26T17:35:32.205Z,0.81
2023-01-26T17:38:04.642Z,0.76
2023-01-26T17:40:36.890Z,0.75
2023-01-26T17:43:09.245Z,0.71
2023-01-26T17:45:41.585Z,0.72
2023-01-26T17:48:14.998Z,0.70
2023-01-26T17:50:54.987Z,0.68
2023-01-26T17:53:28.146Z,0.66
2023-01-26T17:56:00.633Z,0.59
2023-01-26T17:58:32.931Z,0.57
2023-01-26T18:01:06.301Z,0.54
2023-01-26T18:03:43.498Z,0.52
2023-01-26T18:06:16.390Z,0.52
2023-01-26T18:08:48.729Z,0.49
2023-01-26T18:11:21.027Z,0.48
2023-01-26T18:13:55.474Z,0.45
2023-01-26T18:16:28.119Z,0.46
2023-01-26T18:19:04.660Z,0.46
2023-01-26T18:21:37.078Z,0.46
2023-01-26T18:24:09.383Z,0.51
2023-01-26T18:26:41.664Z,0.61
2023-01-26T18:29:14.899Z,0.61
2023-01-26T18:31:48.369Z,0.59
2023-01-26T18:34:20.715Z,0.56
2023-01-26T18:36:52.900Z,0.56
2023-01-26T18:39:24.908Z,0.56
2023-01-26T18:41:56.876Z,0.55
2023-01-26T18:44:28.952Z,0.54
2023-01-26T18:47:00.900Z,0.52
2023-01-26T18:49:32.959Z,0.59
2023-01-26T18:52:05.291Z,0.61
2023-01-26T18:54:37.636Z,0.59
2023-01-26T18:57:10.611Z,0.59
2023-01-26T18:59:43.008Z,0.66
2023-01-26T19:02:16.417Z,0.58
2023-01-26T19:04:48.512Z,0.61
2023-01-26T19:07:21.266Z,0.58
2023-01-26T19:09:53.641Z,0.61
2023-01-26T19:12:25.856Z,0.62
2023-01-26T19:14:58.134Z,0.57
2023-01-26T19:17:30.480Z,0.58
2023-01-26T19:20:04.157Z,0.56
2023-01-26T19:22:35.878Z,0.52
2023-01-26T19:25:08.240Z,0.57
2023-01-26T19:27:40.661Z,0.53
2023-01-26T19:30:13.415Z,0.50
2023-01-26T19:33:03.522Z,0.52
2023-01-26T19:35:38.278Z,0.49
2023-01-26T19:38:10.139Z,0.52
2023-01-26T19:40:43.975Z,0.52
2023-01-26T19:43:18.647Z,0.57
2023-01-26T19:45:55.911Z,0.52
2023-01-26T19:48:29.526Z,0.55
2023-01-26T19:51:04.660Z,0.54
2023-01-26T19:53:39.887Z,0.51
2023-01-26T19:56:14.116Z,0.56
2023-01-26T19:58:51.339Z,0.53
2023-01-26T20:01:24.436Z,0.51
2023-01-26T20:04:00.231Z,0.46
2023-01-26T20:06:34.999Z,0.49
2023-01-26T20:09:08.763Z,0.46
2023-01-26T20:11:40.977Z,0.48
2023-01-26T20:14:12.988Z,0.50
2023-01-26T20:16:45.342Z,0.52
2023-01-26T20:19:18.310Z,0.53
2023-01-26T20:21:51.198Z,0.50
2023-01-26T20:24:23.287Z,0.51
2023-01-26T20:26:55.608Z,0.50
2023-01-26T20:29:27.645Z,0.51
2023-01-26T20:32:00.385Z,0.50
2023-01-26T20:34:32.440Z,0.50
2023-01-26T20:37:04.937Z,0.53
2023-01-26T20:39:37.327Z,0.51
2023-01-26T20:42:10.977Z,0.52
2023-01-26T20:44:44.523Z,0.55
2023-01-26T20:47:16.489Z,0.56
2023-01-26T20:49:48.405Z,0.57
2023-01-26T20:52:21.918Z,0.57
2023-01-26T20:54:54.035Z,0.61
2023-01-26T20:57:26.119Z,0.60
2023-01-26T20:59:58.044Z,0.59
2023-01-26T21:02:30.103Z,0.58
2023-01-26T21:05:02.801Z,0.58
2023-01-26T21:07:34.865Z,0.55
2023-01-26T21:10:07.343Z,0.54
2023-01-26T21:12:39.540Z,0.53
2023-01-26T21:15:12.207Z,0.54
2023-01-26T21:17:44.308Z,0.53
2023-01-26T21:20:16.625Z,0.53
2023-01-26T21:22:48.834Z,0.50
2023-01-26T21:25:21.253Z,0.51
2023-01-26T21:27:56.465Z,0.49
2023-01-26T21:30:28.651Z,0.47
2023-01-26T21:33:00.708Z,0.47
2023-01-26T21:35:32.782Z,0.46
2023-01-26T21:38:04.891Z,0.46
2023-01-26T21:40:37.072Z,0.45
2023-01-26T21:43:09.121Z,0.42
2023-01-26T21:45:54.068Z,0.45
2023-01-26T21:48:31.083Z,0.45
2023-01-26T21:51:21.506Z,0.44
2023-01-26T21:53:53.640Z,0.46
2023-01-26T21:56:25.588Z,0.52
2023-01-26T21:59:04.477Z,0.52
2023-01-26T22:01:48.336Z,0.48
2023-01-26T22:04:23.644Z,0.46
2023-01-26T22:06:56.865Z,0.45
2023-01-26T22:09:30.109Z,0.42
2023-01-26T22:12:03.087Z,0.43
2023-01-26T22:14:35.201Z,0.41
2023-01-26T22:17:07.499Z,0.42
2023-01-26T22:19:39.903Z,0.42
2023-01-26T22:22:12.793Z,0.44
2023-01-26T22:24:44.967Z,0.43
2023-01-26T22:27:17.069Z,0.46
2023-01-26T22:29:49.284Z,0.43
2023-01-26T22:32:21.464Z,0.41
2023-01-26T22:34:53.688Z,0.39
2023-01-26T22:37:25.651Z,0.44
2023-01-26T22:39:58.048Z,0.37
2023-01-26T22:42:30.514Z,0.37
2023-01-26T22:45:02.587Z,0.41
2023-01-26T22:47:36.278Z,0.34
2023-01-26T22:50:08.932Z,0.28
2023-01-26T22:52:40.994Z,0.25
2023-01-26T22:55:13.171Z,0.26
2023-01-26T22:57:45.492Z,0.24
2023-01-26T23:00:17.933Z,0.27
2023-01-26T23:02:50.177Z,0.31
2023-01-26T23:05:22.379Z,0.27
2023-01-26T23:07:54.772Z,0.24
2023-01-26T23:10:27.201Z,0.24
2023-01-26T23:12:59.206Z,0.18
2023-01-26T23:15:31.144Z,0.13
2023-01-26T23:18:03.192Z,0.13
2023-01-26T23:20:35.428Z,0.15
2023-01-26T23:23:07.463Z,0.15
2023-01-26T23:25:51.587Z,0.14
2023-01-26T23:28:24.414Z,0.11
2023-01-26T23:30:57.983Z,0.25
2023-01-26T23:33:32.021Z,0.04
2023-01-26T23:36:05.041Z,0.00
2023-01-26T23:38:37.617Z,0.00
2023-01-26T23:41:09.803Z,-0.02
2023-01-26T23:43:42.082Z,0.01
2023-01-26T23:46:14.261Z,0.00
2023-01-26T23:48:46.268Z,0.01
2023-01-26T23:51:18.331Z,0.01
2023-01-26T23:53:50.477Z,0.00
2023-01-26T23:56:22.618Z,-0.01
2023-01-26T23:58:55.015Z,-0.03
